Time;durP1;ratioP1;P1;durP2;ratioP2;P2;SDS_P1;SDS_P2;PMS_P1;PMS_P2;Temp;Humidity;BMP_temperature;BMP_pressure;BME280_temperature;BME280_humidity;BME280_pressure;Samples;Min_cycle;Max_cycle;Signal;HPM_P1;HPM_P2
2022/10/09 00:01:07;;;;;;;11.33;6.47;;;;;;;11.72;65.96;100125.84;1855700;77;21004;-78
2022/10/09 00:03:34;;;;;;;7.73;6.30;;;;;;;11.70;65.98;100121.18;1854746;77;21184;-76
2022/10/09 00:06:00;;;;;;;9.30;6.10;;;;;;;11.71;65.95;100118.87;1854486;77;21028;-76
2022/10/09 00:08:27;;;;;;;10.70;5.90;;;;;;;11.70;65.94;100114.53;1854464;77;21528;-76
2022/10/09 00:10:54;;;;;;;8.05;5.90;;;;;;;11.70;65.87;100119.84;1839912;77;21540;-77
2022/10/09 00:13:21;;;;;;;8.78;5.70;;;;;;;11.70;65.92;100117.19;1828988;78;21002;-76
2022/10/09 00:15:47;;;;;;;9.88;6.30;;;;;;;11.70;65.93;100118.52;1829031;78;21131;-78
2022/10/09 00:18:16;;;;;;;10.98;5.85;;;;;;;11.71;65.90;100118.87;1822149;77;21986;-78
2022/10/09 00:20:45;;;;;;;7.10;5.50;;;;;;;11.71;65.82;100105.05;1812369;77;21617;-78
2022/10/09 00:23:17;;;;;;;6.92;5.42;;;;;;;11.71;65.82;100107.72;1796460;78;21033;-78
2022/10/09 00:25:52;;;;;;;10.48;6.10;;;;;;;11.71;65.84;100108.22;1758774;81;21508;-79
2022/10/09 00:28:20;;;;;;;8.48;6.37;;;;;;;11.71;65.88;100103.72;1737881;81;21104;-78
2022/10/09 00:30:48;;;;;;;11.05;6.70;;;;;;;11.69;65.93;100098.24;1728618;83;21045;-78
2022/10/09 00:33:15;;;;;;;9.78;6.55;;;;;;;11.68;65.94;100096.06;1753856;80;21030;-79
2022/10/09 00:35:42;;;;;;;8.45;6.22;;;;;;;11.67;66.12;100084.27;1789454;80;21072;-78
2022/10/09 00:38:09;;;;;;;11.22;6.15;;;;;;;11.66;66.09;100083.42;1751928;82;21057;-79
2022/10/09 00:40:36;;;;;;;11.40;6.25;;;;;;;11.63;66.28;100081.59;1751893;82;21128;-77
2022/10/09 00:43:06;;;;;;;10.00;5.97;;;;;;;11.61;66.27;100083.94;1801163;79;21530;-77
2022/10/09 00:45:33;;;;;;;6.95;5.58;;;;;;;11.60;66.30;100080.92;1767011;79;21032;-78
2022/10/09 00:48:03;;;;;;;14.83;6.80;;;;;;;11.58;66.40;100078.93;1756711;80;21020;-76
2022/10/09 00:50:46;;;;;;;9.03;5.87;;;;;;;11.58;66.34;100075.45;1763873;80;20990;-76
2022/10/09 00:53:14;;;;;;;7.95;5.70;;;;;;;11.56;66.33;100080.92;1747569;81;21126;-77
2022/10/09 00:55:43;;;;;;;9.83;6.10;;;;;;;11.54;66.50;100074.94;1781341;80;21010;-77
2022/10/09 00:58:11;;;;;;;8.93;6.53;;;;;;;11.54;66.59;100070.95;1779176;80;21208;-77
2022/10/09 01:00:38;;;;;;;9.13;5.95;;;;;;;11.52;66.62;100080.93;1750237;80;21057;-80
2022/10/09 01:03:04;;;;;;;9.10;5.55;;;;;;;11.50;66.68;100065.63;1750383;80;20989;-78
2022/10/09 01:05:55;;;;;;;8.95;5.87;;;;;;;11.50;66.69;100073.61;1787502;80;21126;-77
2022/10/09 01:08:26;;;;;;;7.12;5.40;;;;;;;11.47;66.86;100067.28;1752016;81;21018;-79
2022/10/09 01:11:08;;;;;;;9.83;6.42;;;;;;;11.47;66.90;100070.45;1770548;81;21058;-78
2022/10/09 01:13:46;;;;;;;10.78;6.40;;;;;;;11.45;67.11;100066.62;1770193;81;21046;-77
2022/10/09 01:16:20;;;;;;;10.18;6.40;;;;;;;11.43;66.98;100064.63;1778694;80;21042;-78
2022/10/09 01:19:13;;;;;;;11.05;6.17;;;;;;;11.41;67.04;100062.62;1777214;80;22074;-75
2022/10/09 01:22:05;;;;;;;10.82;6.40;;;;;;;11.41;67.07;100055.50;1791686;80;21073;-78
2022/10/09 01:24:40;;;;;;;10.35;6.03;;;;;;;11.40;67.19;100051.17;1791609;80;20989;-78
2022/10/09 01:27:14;;;;;;;7.12;6.15;;;;;;;11.40;67.16;100060.98;1796332;79;21003;-77
2022/10/09 01:29:45;;;;;;;6.75;5.70;;;;;;;11.39;67.30;100047.34;1800615;79;21526;-78
2022/10/09 01:32:14;;;;;;;7.53;5.12;;;;;;;11.39;67.26;100052.66;1800909;79;21079;-78
2022/10/09 01:34:42;;;;;;;8.05;5.50;;;;;;;11.38;67.36;100054.49;1797955;79;20976;-78
2022/10/09 01:37:09;;;;;;;7.85;5.80;;;;;;;11.53;67.18;100053.81;1754830;81;21013;-79
2022/10/09 01:39:37;;;;;;;9.53;5.62;;;;;;;11.57;66.96;100052.48;1757772;81;22006;-79
2022/10/09 01:42:04;;;;;;;7.65;5.55;;;;;;;11.52;67.02;100052.17;1757783;81;21020;-78
2022/10/09 01:44:31;;;;;;;8.78;6.55;;;;;;;11.47;67.20;100055.81;1764822;81;21251;-77
2022/10/09 01:46:59;;;;;;;8.98;5.97;;;;;;;11.40;67.35;100052.50;1768071;81;20968;-77
2022/10/09 01:49:41;;;;;;;6.97;5.70;;;;;;;11.35;67.63;100053.48;1745796;81;20920;-78
2022/10/09 01:52:44;;;;;;;9.00;6.30;;;;;;;11.33;67.61;100050.66;1750378;81;21023;-76
2022/10/09 01:55:19;;;;;;;10.05;6.95;;;;;;;11.30;67.80;100049.66;1765553;81;21034;-78
2022/10/09 01:58:12;;;;;;;11.35;7.05;;;;;;;11.27;67.86;100047.34;1765006;80;21141;-77
2022/10/09 02:00:46;;;;;;;8.35;6.58;;;;;;;11.23;68.00;100048.67;1764791;81;21018;-77
2022/10/09 02:03:14;;;;;;;9.45;6.70;;;;;;;11.18;68.18;100053.14;1786389;80;21029;-77
2022/10/09 02:05:41;;;;;;;11.15;7.00;;;;;;;11.13;68.40;100054.14;1791843;80;20997;-77
2022/10/09 02:08:11;;;;;;;15.15;7.62;;;;;;;11.10;68.54;100054.46;1791935;80;21533;-76
2022/10/09 02:10:39;;;;;;;9.10;6.35;;;;;;;11.06;68.67;100051.30;1749612;80;21471;-77
2022/10/09 02:13:07;;;;;;;10.23;7.08;;;;;;;11.11;68.66;100042.84;1757382;81;21034;-77
2022/10/09 02:15:41;;;;;;;12.20;7.58;;;;;;;11.20;68.49;100048.48;1757366;81;21076;-76
2022/10/09 02:18:10;;;;;;;11.68;6.83;;;;;;;11.15;68.66;100045.50;1754143;81;21027;-77
2022/10/09 02:20:41;;;;;;;12.13;7.97;;;;;;;11.09;68.91;100043.51;1735294;82;21070;-75
2022/10/09 02:23:08;;;;;;;11.68;7.20;;;;;;;11.05;69.00;100041.67;1736115;82;21127;-77
2022/10/09 02:25:34;;;;;;;9.78;7.45;;;;;;;11.02;69.20;100043.31;1735776;82;21014;-78
2022/10/09 02:28:01;;;;;;;14.30;7.03;;;;;;;11.01;69.29;100043.00;1773185;80;20978;-79
2022/10/09 02:30:45;;;;;;;10.08;7.28;;;;;;;10.99;69.37;100034.33;1792540;80;21530;-76
2022/10/09 02:33:11;;;;;;;12.40;7.20;;;;;;;10.97;69.35;100028.34;1791840;80;20989;-76
2022/10/09 02:35:38;;;;;;;11.65;6.35;;;;;;;10.95;69.29;100032.98;1766622;80;21613;-78
2022/10/09 02:38:04;;;;;;;9.05;7.08;;;;;;;10.99;69.31;100040.50;1783625;80;21059;-77
2022/10/09 02:40:31;;;;;;;12.80;7.83;;;;;;;11.16;68.99;100039.17;1778105;80;21514;-78
2022/10/09 02:42:57;;;;;;;9.48;7.15;;;;;;;11.18;68.87;100038.03;1766569;79;21044;-77
2022/10/09 02:45:25;;;;;;;10.08;7.17;;;;;;;11.16;68.94;100036.04;1774773;77;21153;-77
2022/10/09 02:47:52;;;;;;;11.70;7.47;;;;;;;11.15;68.98;100032.20;1775271;78;21073;-79
2022/10/09 02:50:18;;;;;;;11.53;7.70;;;;;;;11.14;68.98;100033.19;1717234;82;21286;-79
2022/10/09 02:52:46;;;;;;;9.90;7.30;;;;;;;11.11;68.98;100025.05;1743910;80;20951;-78
2022/10/09 02:55:13;;;;;;;11.83;7.87;;;;;;;11.09;69.12;100027.05;1743877;82;21030;-77
2022/10/09 02:57:39;;;;;;;13.40;8.30;;;;;;;11.06;69.20;100027.37;1772543;79;21090;-78
2022/10/09 03:00:08;;;;;;;12.33;8.18;;;;;;;11.02;69.25;100022.05;1775376;80;21202;-78
2022/10/09 03:02:35;;;;;;;11.75;8.65;;;;;;;10.99;69.43;100027.67;1753457;81;21084;-76
2022/10/09 03:05:01;;;;;;;13.03;8.18;;;;;;;10.94;69.47;100026.03;1753550;81;21076;-79
2022/10/09 03:07:28;;;;;;;11.43;8.05;;;;;;;10.93;69.52;100023.02;1753347;81;21033;-75
2022/10/09 03:09:57;;;;;;;11.03;7.60;;;;;;;11.04;69.43;100028.03;1776345;79;21116;-76
2022/10/09 03:12:24;;;;;;;10.80;7.50;;;;;;;11.00;69.54;100026.70;1782810;80;21529;-78
2022/10/09 03:14:51;;;;;;;13.48;8.58;;;;;;;10.93;69.69;100021.22;1782914;80;20983;-77
2022/10/09 03:17:18;;;;;;;11.90;9.10;;;;;;;10.90;69.82;100018.05;1775670;80;21036;-77
2022/10/09 03:19:44;;;;;;;13.13;8.58;;;;;;;10.85;69.91;100007.89;1822989;78;21029;-78
2022/10/09 03:22:10;;;;;;;12.35;7.83;;;;;;;10.85;69.96;100012.38;1836136;77;20988;-75
2022/10/09 03:24:37;;;;;;;12.88;8.43;;;;;;;10.82;70.14;100013.55;1852120;77;21181;-78
2022/10/09 03:27:03;;;;;;;10.98;7.75;;;;;;;10.79;70.20;100020.00;1852262;77;21063;-80
2022/10/09 03:29:30;;;;;;;12.37;7.20;;;;;;;10.75;70.43;100012.02;1851479;77;21496;-77
2022/10/09 03:31:57;;;;;;;10.95;8.15;;;;;;;10.80;70.44;100007.56;1851524;77;20957;-77
2022/10/09 03:34:23;;;;;;;9.68;7.30;;;;;;;10.93;70.16;100013.72;1831468;77;21514;-79
2022/10/09 03:36:50;;;;;;;9.73;7.90;;;;;;;10.93;70.11;100004.41;1824222;78;21274;-77
2022/10/09 03:39:16;;;;;;;11.45;8.73;;;;;;;10.92;70.17;100009.41;1847739;77;21005;-77
2022/10/09 03:41:44;;;;;;;12.13;7.40;;;;;;;10.91;70.23;100011.72;1853760;77;21072;-77
2022/10/09 03:44:10;;;;;;;12.68;8.18;;;;;;;10.89;70.19;100007.07;1851997;77;21059;-79
2022/10/09 03:46:38;;;;;;;11.70;8.50;;;;;;;10.87;70.24;100002.42;1852030;77;21009;-78
2022/10/09 03:49:05;;;;;;;11.95;8.18;;;;;;;10.85;70.29;100001.75;1804155;77;21692;-79
2022/10/09 03:51:32;;;;;;;12.58;9.68;;;;;;;10.80;70.42;100002.25;1804814;78;21044;-78
2022/10/09 03:53:59;;;;;;;10.53;8.48;;;;;;;10.77;70.44;99999.41;1826293;78;21497;-79
2022/10/09 03:56:25;;;;;;;10.45;7.65;;;;;;;10.74;70.63;100001.08;1826295;78;21430;-79
2022/10/09 03:58:51;;;;;;;14.40;7.92;;;;;;;10.86;70.39;99995.45;1826288;78;21585;-79
2022/10/09 04:01:18;;;;;;;13.03;9.08;;;;;;;10.90;70.32;99992.80;1826267;78;21587;-78
2022/10/09 04:03:44;;;;;;;11.05;8.28;;;;;;;10.85;70.32;99989.28;1851612;77;21586;-78
2022/10/09 04:06:12;;;;;;;10.85;9.25;;;;;;;10.83;70.39;99995.27;1851883;77;21051;-79
2022/10/09 04:08:39;;;;;;;13.68;8.90;;;;;;;10.79;70.39;99993.42;1826567;77;21345;-79
2022/10/09 04:11:05;;;;;;;12.85;9.30;;;;;;;10.76;70.47;99992.44;1793990;80;20994;-77
2022/10/09 04:13:32;;;;;;;10.85;8.00;;;;;;;10.74;70.54;99996.23;1793605;80;21232;-78
2022/10/09 04:15:58;;;;;;;12.40;9.45;;;;;;;10.70;70.71;99997.09;1793708;80;21501;-78
2022/10/09 04:18:25;;;;;;;12.85;8.53;;;;;;;10.67;70.75;99995.25;1821017;77;20957;-77
2022/10/09 04:20:55;;;;;;;11.70;8.50;;;;;;;10.64;70.81;99995.05;1852131;77;21028;-78
2022/10/09 04:23:24;;;;;;;12.75;8.90;;;;;;;10.68;70.73;99996.42;1851604;77;21063;-77
2022/10/09 04:25:54;;;;;;;12.15;7.83;;;;;;;10.80;70.52;99992.45;1821804;77;21060;-77
2022/10/09 04:28:22;;;;;;;12.40;9.13;;;;;;;10.78;70.60;100002.41;1827543;77;21015;-78
2022/10/09 04:30:50;;;;;;;14.83;9.68;;;;;;;10.73;70.72;99994.09;1853305;77;20977;-78
2022/10/09 04:33:18;;;;;;;13.83;10.15;;;;;;;10.69;70.86;99995.41;1855846;77;20929;-77
2022/10/09 04:35:49;;;;;;;13.53;9.63;;;;;;;10.65;70.96;99996.73;1833658;77;20942;-79
2022/10/09 04:38:18;;;;;;;15.13;9.73;;;;;;;10.62;70.96;99997.04;1818435;78;21470;-79
2022/10/09 04:41:02;;;;;;;15.23;9.58;;;;;;;10.60;71.07;99989.26;1814724;79;20995;-79
2022/10/09 04:43:29;;;;;;;;;;;;;;;10.59;71.21;99989.41;1791028;78;21081;-77
2022/10/09 04:45:55;;;;;;;11.85;8.68;;;;;;;10.65;71.19;99994.08;1782704;80;20143;-78
2022/10/09 04:48:22;;;;;;;11.20;8.75;;;;;;;10.76;70.95;99993.77;1782648;79;21022;-78
2022/10/09 04:50:48;;;;;;;13.15;9.05;;;;;;;10.77;70.89;99994.09;1782673;80;21749;-78
2022/10/09 04:53:15;;;;;;;14.70;8.95;;;;;;;10.78;70.88;99999.75;1787599;77;20974;-77
2022/10/09 04:55:43;;;;;;;14.50;10.20;;;;;;;10.80;70.83;100003.08;1845660;77;21028;-78
2022/10/09 04:58:10;;;;;;;15.05;10.25;;;;;;;10.82;70.82;100009.56;1846215;77;21012;-77
2022/10/09 05:00:42;;;;;;;13.43;9.13;;;;;;;10.84;70.71;100014.72;1818399;77;21058;-79
2022/10/09 05:03:09;;;;;;;12.28;9.40;;;;;;;10.86;70.73;100016.21;1814799;79;21111;-79
2022/10/09 05:05:37;;;;;;;12.60;9.85;;;;;;;10.89;70.68;100015.05;1814397;79;21091;-79
2022/10/09 05:08:03;;;;;;;13.13;9.35;;;;;;;10.93;70.63;100017.23;1814909;79;21526;-78
2022/10/09 05:10:32;;;;;;;12.73;9.78;;;;;;;11.02;70.48;100017.55;1814703;78;21461;-78
2022/10/09 05:13:00;;;;;;;14.35;9.33;;;;;;;11.15;70.22;100014.92;1804977;77;21072;-78
2022/10/09 05:15:27;;;;;;;15.90;9.48;;;;;;;11.16;70.14;100013.44;1802797;79;21485;-77
2022/10/09 05:17:55;;;;;;;12.25;9.48;;;;;;;11.16;70.12;100013.44;1797315;78;21058;-76
2022/10/09 05:20:22;;;;;;;12.50;10.10;;;;;;;11.19;70.01;100009.09;1782582;79;21091;-78
2022/10/09 05:22:50;;;;;;;13.28;9.88;;;;;;;11.26;69.93;100007.09;1782601;79;21035;-78
2022/10/09 05:25:17;;;;;;;15.48;9.68;;;;;;;11.33;69.68;100010.77;1783358;79;20999;-79
2022/10/09 05:27:43;;;;;;;10.70;9.53;;;;;;;11.39;69.44;100006.11;1814667;77;21109;-80
2022/10/09 05:30:10;;;;;;;15.10;9.90;;;;;;;11.44;69.25;100006.95;1786211;79;21009;-79
2022/10/09 05:32:37;;;;;;;13.80;9.70;;;;;;;11.45;69.06;100005.43;1785249;79;21053;-78
2022/10/09 05:35:04;;;;;;;16.05;10.15;;;;;;;11.46;69.05;100011.09;1808840;79;20986;-79
2022/10/09 05:37:31;;;;;;;15.68;10.25;;;;;;;11.46;69.09;100017.75;1783495;79;21073;-78
2022/10/09 05:39:57;;;;;;;11.50;8.63;;;;;;;11.48;69.09;100021.07;1783337;80;21586;-80
2022/10/09 05:42:24;;;;;;;18.50;11.22;;;;;;;11.65;69.03;100017.05;1783604;80;21550;-78
2022/10/09 05:44:50;;;;;;;16.87;9.90;;;;;;;11.70;68.77;100020.05;1783350;80;21530;-79
2022/10/09 05:47:18;;;;;;;12.70;10.08;;;;;;;11.67;68.87;100026.55;1801398;78;20955;-78
2022/10/09 05:49:45;;;;;;;16.93;10.00;;;;;;;11.66;69.04;100029.38;1839107;77;21028;-78
2022/10/09 05:52:13;;;;;;;15.53;9.40;;;;;;;11.62;68.86;100030.20;1815246;77;21089;-77
2022/10/09 05:54:40;;;;;;;14.15;9.13;;;;;;;11.63;68.87;100035.02;1845381;77;21012;-77
2022/10/09 05:57:08;;;;;;;13.08;10.20;;;;;;;11.64;68.83;100035.36;1845461;77;21465;-77
2022/10/09 05:59:34;;;;;;;12.58;9.33;;;;;;;11.62;68.88;100034.20;1845284;77;21060;-77
2022/10/09 06:02:00;;;;;;;13.53;9.48;;;;;;;11.60;68.76;100029.55;1845454;77;21001;-74
2022/10/09 06:04:28;;;;;;;14.05;9.38;;;;;;;11.57;68.87;100028.06;1845248;77;21217;-77
2022/10/09 06:06:54;;;;;;;11.73;9.05;;;;;;;11.53;68.87;100030.72;1837533;77;21070;-76
2022/10/09 06:09:22;;;;;;;16.00;9.13;;;;;;;11.48;69.03;100029.56;1782372;80;21542;-76
2022/10/09 06:11:52;;;;;;;13.72;9.15;;;;;;;11.47;69.14;100027.37;1782338;79;20987;-75
2022/10/09 06:14:20;;;;;;;17.00;9.23;;;;;;;11.60;68.91;100029.03;1839927;77;21075;-74
2022/10/09 06:16:47;;;;;;;12.73;8.65;;;;;;;11.71;68.65;100023.05;1839470;77;21079;-75
2022/10/09 06:19:15;;;;;;;13.65;8.68;;;;;;;11.76;68.52;100028.69;1814469;79;21065;-77
2022/10/09 06:21:44;;;;;;;15.08;10.23;;;;;;;11.80;68.37;100024.20;1814701;78;21369;-74
2022/10/09 06:24:20;;;;;;;14.15;9.75;;;;;;;11.88;68.20;100027.35;1808707;79;21026;-74
2022/10/09 06:26:47;;;;;;;14.75;9.75;;;;;;;11.96;68.03;100033.19;1826997;77;21556;-76
2022/10/09 06:29:14;;;;;;;13.60;9.35;;;;;;;12.04;67.76;100029.68;1782470;80;21118;-74
2022/10/09 06:31:42;;;;;;;13.28;9.60;;;;;;;12.11;67.59;100037.29;1782478;79;21014;-75
2022/10/09 06:34:10;;;;;;;12.10;8.80;;;;;;;12.18;67.49;100028.45;1782267;80;21025;-76
2022/10/09 06:36:36;;;;;;;14.05;9.85;;;;;;;12.29;67.36;100027.77;1809697;79;21502;-76
2022/10/09 06:39:05;;;;;;;12.68;9.68;;;;;;;12.42;67.31;100032.53;1782305;80;21033;-75
2022/10/09 06:41:32;;;;;;;12.82;9.35;;;;;;;12.53;66.86;100030.81;1783309;79;21137;-74
2022/10/09 06:44:06;;;;;;;13.62;8.83;;;;;;;12.66;66.44;100035.59;1781703;79;21530;-77
2022/10/09 06:46:36;;;;;;;18.15;8.50;;;;;;;12.78;66.07;100036.34;1783176;78;20994;-75
2022/10/09 06:49:03;;;;;;;13.98;9.43;;;;;;;12.90;65.68;100031.47;1782269;80;21053;-74
2022/10/09 06:53:37;;;;;;;14.85;10.40;;;;;;;13.20;65.18;100021.43;1886293;76;28091;-76
2022/10/09 06:56:04;;;;;;;14.93;9.80;;;;;;;13.28;64.25;100028.03;1854343;77;21011;-75
2022/10/09 06:58:31;;;;;;;17.48;10.23;;;;;;;13.36;63.65;100026.66;1849887;77;21215;-75
2022/10/09 07:01:08;;;;;;;14.28;9.80;;;;;;;13.43;63.29;100024.12;1801348;79;20958;-75
2022/10/09 07:03:35;;;;;;;17.42;9.10;;;;;;;13.51;62.77;100030.20;1787016;79;21485;-75
2022/10/09 07:06:16;;;;;;;20.27;10.32;;;;;;;13.61;62.50;100028.61;1766369;79;21052;-76
2022/10/09 07:08:46;;;;;;;18.42;8.78;;;;;;;13.70;62.28;100028.05;1794419;79;20960;-73
2022/10/09 07:11:16;;;;;;;14.43;9.03;;;;;;;13.81;62.21;100014.25;1797286;79;21098;-75
2022/10/09 07:13:43;;;;;;;22.22;10.28;;;;;;;13.94;62.08;100014.42;1796696;79;21493;-74
2022/10/09 07:16:10;;;;;;;17.98;9.80;;;;;;;14.07;61.34;100012.97;1794983;79;20993;-72
2022/10/09 07:18:38;;;;;;;16.60;8.78;;;;;;;14.20;61.11;100013.16;1798551;79;21501;-74
2022/10/09 07:21:09;;;;;;;16.85;8.23;;;;;;;14.32;60.55;100017.52;1798929;79;21045;-75
2022/10/09 07:23:35;;;;;;;15.00;8.90;;;;;;;14.43;60.12;100005.03;1797385;79;21140;-76
2022/10/09 07:26:14;;;;;;;11.50;6.92;;;;;;;14.57;60.10;100009.23;1797328;79;21556;-75
2022/10/09 07:28:41;;;;;;;11.00;8.65;;;;;;;14.69;59.65;100006.38;1724488;81;21067;-75
2022/10/09 07:31:07;;;;;;;12.50;9.08;;;;;;;14.79;59.54;100004.22;1820994;78;20990;-76
2022/10/09 07:33:35;;;;;;;12.82;8.80;;;;;;;14.91;59.54;100005.41;1829813;77;21001;-75
2022/10/09 07:36:02;;;;;;;14.15;8.70;;;;;;;15.05;59.56;100003.68;1841509;77;21670;-76
2022/10/09 07:38:29;;;;;;;12.78;7.83;;;;;;;15.19;59.24;100008.64;1854287;77;20997;-76
2022/10/09 07:41:03;;;;;;;11.97;7.92;;;;;;;15.34;58.76;99995.20;1854423;77;21584;-75
2022/10/09 07:43:30;;;;;;;14.05;8.70;;;;;;;15.47;58.29;99995.80;1853935;77;21015;-75
2022/10/09 07:45:58;;;;;;;15.10;9.13;;;;;;;15.61;58.86;99994.08;1854439;77;21004;-76
2022/10/09 07:48:25;;;;;;;15.40;10.32;;;;;;;15.74;58.75;99995.52;1845610;77;21660;-74
2022/10/09 07:50:52;;;;;;;12.28;9.18;;;;;;;15.85;58.50;100000.85;1847801;77;21289;-75
2022/10/09 07:53:18;;;;;;;13.68;9.45;;;;;;;15.91;57.70;100001.41;1852668;77;21016;-75
2022/10/09 07:55:47;;;;;;;16.97;9.80;;;;;;;16.00;57.89;99998.89;1852198;77;21045;-75
2022/10/09 07:58:15;;;;;;;15.55;8.85;;;;;;;16.09;57.92;99996.89;1852429;77;20996;-76
2022/10/09 08:00:42;;;;;;;12.25;9.03;;;;;;;16.24;57.67;99986.84;1852558;77;21080;-76
2022/10/09 08:03:09;;;;;;;12.80;8.20;;;;;;;16.42;57.32;99986.84;1852110;77;21047;-76
2022/10/09 08:05:36;;;;;;;13.18;8.60;;;;;;;16.61;56.81;99990.59;1850520;77;21522;-76
2022/10/09 08:08:04;;;;;;;12.30;8.40;;;;;;;16.77;55.63;99996.13;1793842;78;21029;-76
2022/10/09 08:10:33;;;;;;;13.68;7.90;;;;;;;16.83;54.73;99993.48;1793744;79;20977;-77
2022/10/09 08:12:59;;;;;;;11.38;7.60;;;;;;;16.85;54.55;99997.31;1822607;77;21205;-75
2022/10/09 08:15:26;;;;;;;8.65;7.40;;;;;;;16.83;54.17;99991.33;1853892;77;21000;-74
2022/10/09 08:17:53;;;;;;;10.00;7.35;;;;;;;16.81;54.12;99997.38;1839908;77;21024;-77
2022/10/09 08:20:19;;;;;;;13.93;7.53;;;;;;;16.81;54.60;99996.03;1795450;78;21077;-76
2022/10/09 08:22:46;;;;;;;10.13;7.45;;;;;;;16.86;54.48;99993.09;1795206;78;21092;-76
2022/10/09 08:25:12;;;;;;;9.35;6.85;;;;;;;16.99;54.39;99993.61;1793570;80;21049;-77
2022/10/09 08:27:39;;;;;;;11.53;7.25;;;;;;;17.15;54.06;99996.41;1797632;77;21470;-76
2022/10/09 08:30:07;;;;;;;14.90;8.48;;;;;;;17.29;53.57;99994.59;1793640;80;21013;-76
2022/10/09 08:32:34;;;;;;;16.15;10.82;;;;;;;17.42;53.13;99993.25;1793565;80;21030;-76
2022/10/09 08:35:00;;;;;;;16.02;8.30;;;;;;;17.63;52.93;99988.68;1796484;77;20978;-77
2022/10/09 08:37:27;;;;;;;10.70;6.95;;;;;;;17.87;52.79;99981.88;1793628;79;21506;-76
2022/10/09 08:39:54;;;;;;;9.83;6.40;;;;;;;18.08;51.92;99976.75;1797249;78;21023;-75
2022/10/09 08:42:39;;;;;;;9.20;6.87;;;;;;;18.26;51.45;99974.72;1826033;78;21620;-76
2022/10/09 08:45:11;;;;;;;7.90;6.00;;;;;;;18.34;50.82;99965.59;1825859;78;21064;-75
2022/10/09 08:47:58;;;;;;;10.48;6.78;;;;;;;18.40;50.83;99958.00;1839566;77;20996;-76
2022/10/09 08:50:32;;;;;;;8.00;6.10;;;;;;;18.59;50.76;99942.27;1852302;77;21086;-77
2022/10/09 08:53:25;;;;;;;12.00;7.85;;;;;;;18.96;50.41;99945.17;1852329;77;21044;-75
2022/10/09 08:55:56;;;;;;;7.72;6.17;;;;;;;19.41;49.28;99950.42;1853930;77;21075;-76
2022/10/09 08:58:33;;;;;;;7.00;5.30;;;;;;;19.90;48.29;99957.33;1845544;77;20994;-76
2022/10/09 09:01:32;;;;;;;17.55;6.33;;;;;;;20.29;47.29;99962.48;1843204;77;21025;-77
2022/10/09 09:04:54;;;;;;;10.90;6.20;;;;;;;20.51;47.14;99962.81;1843826;77;21737;-77
2022/10/09 09:07:31;;;;;;;8.70;6.35;;;;;;;20.69;46.75;99957.41;1854309;77;20997;-78
2022/10/09 09:10:28;;;;;;;10.13;6.50;;;;;;;21.14;46.40;99956.94;1856271;77;21465;-77
2022/10/09 09:13:17;;;;;;;8.70;6.80;;;;;;;21.59;45.05;99962.34;1854948;77;21004;-75
2022/10/09 09:15:49;;;;;;;7.97;6.30;;;;;;;21.95;44.65;99953.68;1852384;77;21005;-77
2022/10/09 09:18:36;;;;;;;11.70;7.20;;;;;;;22.24;44.12;99955.09;1837629;78;21745;-75
2022/10/09 09:21:31;;;;;;;10.18;6.53;;;;;;;22.58;43.70;99947.95;1837164;78;21052;-76
2022/10/09 09:23:57;;;;;;;7.65;6.80;;;;;;;22.91;43.38;99939.59;1841329;77;21055;-76
2022/10/09 09:26:25;;;;;;;8.73;5.17;;;;;;;23.44;43.12;99941.00;1848342;77;21291;-77
2022/10/09 09:28:56;;;;;;;6.60;5.60;;;;;;;23.97;41.14;99933.89;1848451;77;21036;-77
2022/10/09 09:31:29;;;;;;;6.83;5.12;;;;;;;24.22;40.40;99936.94;1846256;77;21134;-77
2022/10/09 09:34:04;;;;;;;5.12;4.25;;;;;;;24.31;39.85;99941.36;1842661;77;20971;-76
2022/10/09 09:36:42;;;;;;;7.45;4.90;;;;;;;24.41;39.85;99938.75;1847687;77;21091;-76
2022/10/09 09:39:10;;;;;;;6.47;4.12;;;;;;;24.61;39.41;99931.41;1848286;77;21497;-75
2022/10/09 09:41:39;;;;;;;5.87;4.12;;;;;;;24.94;38.66;99928.18;1848344;77;21079;-75
2022/10/09 09:44:07;;;;;;;5.25;4.08;;;;;;;25.27;38.16;99929.83;1848294;77;21508;-76
2022/10/09 09:46:33;;;;;;;6.60;4.58;;;;;;;25.49;37.51;99932.41;1836588;77;21041;-77
2022/10/09 09:49:00;;;;;;;7.50;5.22;;;;;;;25.64;37.40;99928.97;1751044;80;21058;-77
2022/10/09 09:51:30;;;;;;;6.75;3.95;;;;;;;25.84;37.50;99924.72;1820569;78;21144;-76
2022/10/09 09:54:02;;;;;;;4.87;4.00;;;;;;;26.02;36.83;99931.63;1820313;78;20973;-76
2022/10/09 09:56:38;;;;;;;6.22;4.17;;;;;;;26.12;36.77;99929.52;1820694;78;21708;-75
2022/10/09 09:59:06;;;;;;;4.42;3.95;;;;;;;26.11;36.91;99928.67;1820230;78;20966;-75
2022/10/09 10:01:34;;;;;;;3.92;3.20;;;;;;;26.27;36.02;99934.46;1848261;77;20976;-78
2022/10/09 10:04:02;;;;;;;6.92;4.70;;;;;;;26.30;35.49;99929.02;1856220;77;20969;-76
2022/10/09 10:06:35;;;;;;;5.05;3.98;;;;;;;26.34;35.68;99924.66;1847684;77;20955;-77
2022/10/09 10:09:15;;;;;;;9.15;4.65;;;;;;;26.62;35.37;99926.13;1846708;77;21532;-78
2022/10/09 10:11:47;;;;;;;6.33;4.40;;;;;;;27.10;35.08;99925.05;1847069;77;21308;-77
2022/10/09 10:14:15;;;;;;;5.80;4.20;;;;;;;27.33;35.41;99930.52;1848663;77;21071;-78
2022/10/09 10:16:41;;;;;;;5.08;4.53;;;;;;;27.67;35.27;99921.18;1850596;77;21095;-77
2022/10/09 10:19:28;;;;;;;6.50;4.15;;;;;;;27.64;35.10;99930.75;1849463;77;21024;-77
2022/10/09 10:22:03;;;;;;;6.90;4.45;;;;;;;27.15;35.30;99917.69;1848361;77;21065;-77
2022/10/09 10:24:41;;;;;;;4.65;4.20;;;;;;;26.09;36.10;99926.77;1847090;77;21045;-77
2022/10/09 10:27:31;;;;;;;5.10;4.35;;;;;;;25.07;37.37;99922.31;1772104;80;21609;-76
2022/10/09 10:30:01;;;;;;;5.28;4.50;;;;;;;24.30;38.63;99930.23;1845655;77;21516;-76
2022/10/09 10:32:45;;;;;;;5.35;4.65;;;;;;;23.66;39.46;99931.58;1845403;77;20972;-74
2022/10/09 10:35:18;;;;;;;5.72;4.22;;;;;;;23.17;40.07;99932.72;1844226;77;21233;-77
2022/10/09 10:38:24;;;;;;;5.65;4.03;;;;;;;22.56;40.90;99925.67;1844668;77;21061;-76
2022/10/09 10:41:17;;;;;;;7.17;4.47;;;;;;;22.08;41.76;99929.59;1772328;80;21054;-75
2022/10/09 10:44:01;;;;;;;7.33;4.17;;;;;;;21.51;42.77;99918.92;1772750;81;21670;-76
2022/10/09 10:46:33;;;;;;;6.83;4.33;;;;;;;21.06;44.00;99919.47;1765324;80;21502;-76
2022/10/09 10:49:00;;;;;;;7.47;4.90;;;;;;;20.67;44.95;99919.54;1830203;77;21559;-76
2022/10/09 10:52:05;;;;;;;8.83;4.83;;;;;;;20.39;45.88;99915.02;1820024;78;21009;-77
2022/10/09 10:54:54;;;;;;;7.15;4.90;;;;;;;20.15;46.09;99907.35;1773692;78;20985;-78
2022/10/09 10:57:41;;;;;;;7.50;4.90;;;;;;;19.89;46.82;99918.45;1840481;77;21074;-77
2022/10/09 11:00:11;;;;;;;12.68;4.90;;;;;;;19.70;47.70;99906.80;1813573;77;21575;-77
2022/10/09 11:03:25;;;;;;;6.25;5.60;;;;;;;19.52;48.38;99907.63;1849660;77;21296;-78
2022/10/09 11:06:00;;;;;;;8.98;5.10;;;;;;;19.36;48.84;99917.92;1848488;77;21020;-77
2022/10/09 11:08:51;;;;;;;9.75;5.28;;;;;;;19.20;49.81;99923.86;1848696;77;20992;-76
2022/10/09 11:11:45;;;;;;;8.28;5.45;;;;;;;19.07;50.46;99922.11;1848402;77;20997;-77
2022/10/09 11:14:38;;;;;;;7.20;4.70;;;;;;;18.97;50.74;99920.45;1848926;77;21068;-76
2022/10/09 11:17:14;;;;;;;;;;;;;;;18.88;51.06;99919.88;1857928;77;21282;-76
2022/10/09 11:20:10;;;;;;;8.50;5.08;;;;;;;18.82;51.21;99917.53;1853559;77;20263;-77
2022/10/09 11:23:11;;;;;;;9.25;6.03;;;;;;;18.75;51.41;99912.67;1853713;77;21016;-76
2022/10/09 11:26:16;;;;;;;7.20;5.15;;;;;;;18.75;51.68;99909.16;1856177;77;21012;-76
2022/10/09 11:29:07;;;;;;;7.85;4.95;;;;;;;18.80;51.98;99908.03;1856845;77;21045;-75
2022/10/09 11:31:50;;;;;;;8.70;5.37;;;;;;;18.89;51.78;99908.08;1852349;77;21768;-75
2022/10/09 11:34:21;;;;;;;9.05;5.85;;;;;;;19.03;52.08;99912.30;1853613;77;21017;-76
2022/10/09 11:36:47;;;;;;;8.70;5.33;;;;;;;19.24;51.83;99909.75;1853837;77;21010;-76
2022/10/09 11:39:22;;;;;;;8.58;5.90;;;;;;;19.39;51.60;99917.49;1853626;77;21111;-77
2022/10/09 11:41:51;;;;;;;7.67;5.87;;;;;;;19.48;51.25;99911.28;1853770;77;21033;-76
2022/10/09 11:44:46;;;;;;;9.63;6.70;;;;;;;19.44;51.59;99908.20;1853753;77;21143;-76
2022/10/09 11:47:38;;;;;;;7.62;6.40;;;;;;;19.39;52.03;99922.88;1850217;77;20998;-77